Terminal Aerodrome Forecast
Issued by NWS Wakefield, VA

Home | Current Version | Previous Version | Text Only | Print | Product List | Glossary On
Versions: 1 2 3 4 5 6 7 8 9 10 11 12 13 14 15 16 17 18 19 20 21
181
FTUS41 KAKQ 062340
TAFORF
TAF
KORF 062340Z 0700/0724 05004KT P6SM OVC200
     FM070600 30008KT P6SM OVC100
     FM071000 03015G23KT P6SM OVC050
     FM071600 03020G27KT P6SM OVC050
     FM071800 03024G30KT P6SM OVC100=

USA.gov is the U.S. government's official web portal to all federal, state and local government web resources and services.